< < Back
Terminal Aerodrome Forecast


Current Version              Previous Versions:   1  2  3  4  5  6  7  8  9  

Terminal Aerodrome Forecast

893
FTUS42 KGSP 241800 AAA
TAFAVL
TAF AMD
KAVL 241823Z 2418/2518 30005KT P6SM VCSH SCT045
      TEMPO 2418/2421 34020G30KT 1SM TSRA OVC020CB
     FM242100 31005KT P6SM VCSH BKN035
     FM250000 33004KT P6SM BKN060
     FM250700 33003KT 4SM BR SCT003
     FM251000 00000KT 3/4SM BR BKN003
     FM251300 00000KT P6SM SCT020=



Latest METAR

518
SAUS70 KWBC 250500 RRM
MTRAVL
METAR KAVL 250454Z AUTO 01004KT 10SM CLR 20/18 A3007 RMK AO2 SLP154
T02000183 402830194


USA.gov is the U.S. government's official web portal to all federal, state and local government web resources and services.